Time;durP1;ratioP1;P1;durP2;ratioP2;P2;SDS_P1;SDS_P2;PMS_P1;PMS_P2;Temp;Humidity;BMP_temperature;BMP_pressure;BME280_temperature;BME280_humidity;BME280_pressure;Samples;Min_cycle;Max_cycle;Signal;HPM_P1;HPM_P2
2022/09/21 00:21:23;;;;;;;9.70;2.13;;;17.70;74.70;;;;;;5131794;27;20382;-72
2022/09/21 00:23:50;;;;;;;6.97;2.38;;;17.70;74.10;;;;;;5123461;27;20051;-72
2022/09/21 00:26:19;;;;;;;9.38;2.90;;;17.70;74.10;;;;;;5127475;27;20023;-69
2022/09/21 00:28:47;;;;;;;7.25;2.50;;;17.80;74.10;;;;;;5127274;27;20135;-72
2022/09/21 00:31:16;;;;;;;9.07;2.30;;;17.80;73.80;;;;;;5127633;27;20381;-74
2022/09/21 00:33:43;;;;;;;4.57;2.20;;;17.80;73.30;;;;;;5129138;27;20070;-72
2022/09/21 00:36:18;;;;;;;9.23;1.90;;;17.80;72.80;;;;;;5129326;27;20579;-74
2022/09/21 00:38:56;;;;;;;5.45;1.67;;;17.80;72.50;;;;;;5130656;27;20027;-78
2022/09/21 00:41:23;;;;;;;5.32;2.50;;;17.80;72.30;;;;;;5128185;27;20027;-69
2022/09/21 00:44:22;;;;;;;6.05;2.83;;;17.80;72.10;;;;;;5127485;27;20455;-70
2022/09/21 00:46:52;;;;;;;6.00;1.95;;;17.80;72.00;;;;;;5128836;27;20069;-73
2022/09/21 00:49:20;;;;;;;3.40;1.63;;;17.80;71.90;;;;;;5124514;27;20055;-71
2022/09/21 00:51:47;;;;;;;3.97;1.90;;;17.80;71.60;;;;;;5126592;27;20109;-72
2022/09/21 00:54:32;;;;;;;2.55;2.00;;;17.80;71.40;;;;;;5126592;27;20030;-68
2022/09/21 00:57:01;;;;;;;3.85;1.60;;;17.70;71.30;;;;;;5128754;27;20156;-73
2022/09/21 00:59:34;;;;;;;2.97;1.85;;;17.70;71.30;;;;;;5129115;27;20102;-78
2022/09/21 01:02:01;;;;;;;4.55;1.70;;;17.70;71.20;;;;;;5123570;27;20023;-73
2022/09/21 01:04:28;;;;;;;9.07;1.77;;;17.70;70.90;;;;;;5126427;27;20512;-74
2022/09/21 01:06:57;;;;;;;4.45;2.08;;;17.70;70.90;;;;;;5125730;27;20015;-71
2022/09/21 01:09:24;;;;;;;3.85;1.80;;;17.70;70.90;;;;;;5130223;27;20489;-76
2022/09/21 01:12:20;;;;;;;5.50;1.90;;;17.60;71.20;;;;;;5127303;27;20071;-80
2022/09/21 01:15:14;;;;;;;5.13;1.90;;;17.60;71.10;;;;;;5106054;27;20481;-78
2022/09/21 01:17:44;;;;;;;3.78;1.80;;;17.60;70.90;;;;;;5128132;27;20086;-75
2022/09/21 01:21:00;;;;;;;4.47;2.53;;;17.60;70.90;;;;;;5122929;27;20044;-77
2022/09/21 01:23:52;;;;;;;7.13;1.73;;;17.60;70.90;;;;;;5111122;28;20023;-76
2022/09/21 01:26:41;;;;;;;10.98;2.00;;;17.60;71.30;;;;;;5112834;27;20167;-81
2022/09/21 01:29:32;;;;;;;9.80;2.88;;;17.50;71.40;;;;;;5114357;27;20031;-73
2022/09/21 01:32:10;;;;;;;4.53;1.83;;;17.50;72.30;;;;;;5111427;27;20207;-77
2022/09/21 01:35:05;;;;;;;16.08;3.78;;;17.50;73.20;;;;;;5106738;27;20008;-77
2022/09/21 01:37:46;;;;;;;3.78;1.48;;;17.50;72.10;;;;;;5111770;27;20036;-74
2022/09/21 01:40:24;;;;;;;7.95;2.22;;;17.50;72.60;;;;;;5092013;28;20330;-78
2022/09/21 01:42:53;;;;;;;10.40;1.85;;;17.40;73.00;;;;;;5112621;27;20023;-78
2022/09/21 01:45:36;;;;;;;9.90;1.95;;;17.40;73.60;;;;;;5110997;27;20027;-80
2022/09/21 01:48:04;;;;;;;10.50;2.55;;;17.40;74.00;;;;;;5113659;27;20028;-81
2022/09/21 01:51:09;;;;;;;12.90;3.00;;;17.40;74.20;;;;;;5112736;27;20031;-71
2022/09/21 01:53:45;;;;;;;12.40;2.35;;;17.40;72.80;;;;;;5048683;28;20025;-68
2022/09/21 01:56:21;;;;;;;6.93;2.10;;;17.40;71.90;;;;;;5104657;27;20040;-69
2022/09/21 01:58:50;;;;;;;5.03;1.75;;;17.40;71.20;;;;;;5112555;27;20039;-72
2022/09/21 02:01:23;;;;;;;10.90;2.28;;;17.30;70.90;;;;;;5094739;28;20053;-69
2022/09/21 02:03:56;;;;;;;4.22;1.83;;;17.30;70.60;;;;;;5114090;27;20027;-68
2022/09/21 02:06:26;;;;;;;4.13;1.75;;;17.30;70.40;;;;;;5111135;27;20019;-68
2022/09/21 02:08:52;;;;;;;2.92;2.00;;;17.30;70.30;;;;;;5110054;27;20032;-71
2022/09/21 02:11:19;;;;;;;15.65;2.05;;;17.20;70.20;;;;;;5110781;27;20026;-67
2022/09/21 02:13:49;;;;;;;11.57;2.40;;;17.20;70.80;;;;;;5115854;27;20012;-72
2022/09/21 02:16:41;;;;;;;6.38;2.38;;;17.20;71.40;;;;;;5111722;27;20109;-70
2022/09/21 02:19:41;;;;;;;7.45;2.58;;;17.10;70.80;;;;;;5111685;27;20026;-75
2022/09/21 02:22:28;;;;;;;4.85;1.92;;;17.10;70.40;;;;;;5112713;27;20540;-75
2022/09/21 02:25:05;;;;;;;5.20;2.75;;;17.10;70.10;;;;;;5107159;28;20458;-78
2022/09/21 02:27:46;;;;;;;8.63;2.65;;;17.10;69.90;;;;;;5110295;28;20039;-80
2022/09/21 02:30:19;;;;;;;12.88;5.70;;;17.10;69.70;;;;;;5110292;28;20039;-76
2022/09/21 02:32:50;;;;;;;5.93;4.10;;;17.00;69.50;;;;;;5110072;27;20024;-80
2022/09/21 02:35:31;;;;;;;5.43;4.78;;;17.00;69.40;;;;;;5110258;27;20027;-78
2022/09/21 02:38:04;;;;;;;5.75;4.60;;;17.00;69.40;;;;;;5110392;27;20420;-75
2022/09/21 02:41:04;;;;;;;8.02;4.78;;;16.90;69.10;;;;;;5110819;27;20377;-73
2022/09/21 02:43:38;;;;;;;9.80;4.95;;;16.90;69.10;;;;;;5078621;27;20134;-75
2022/09/21 02:46:17;;;;;;;7.90;5.47;;;16.90;68.90;;;;;;5109869;27;20054;-76
2022/09/21 02:49:12;;;;;;;7.82;5.63;;;16.90;68.90;;;;;;5110815;27;20027;-75
2022/09/21 02:51:46;;;;;;;7.18;5.47;;;16.90;68.70;;;;;;5109705;27;20035;-76
2022/09/21 02:54:17;;;;;;;13.13;5.47;;;16.90;68.70;;;;;;5111631;27;20030;-77
2022/09/21 02:56:47;;;;;;;8.95;4.22;;;16.80;68.50;;;;;;5111366;27;20020;-69
2022/09/21 02:59:18;;;;;;;7.78;3.95;;;16.80;68.60;;;;;;5111688;27;20033;-67
2022/09/21 03:01:44;;;;;;;6.78;4.72;;;16.80;69.30;;;;;;5107338;27;20023;-72
2022/09/21 03:04:11;;;;;;;9.50;5.20;;;16.70;68.60;;;;;;5111587;27;20066;-72
2022/09/21 03:06:37;;;;;;;13.98;5.10;;;16.70;68.80;;;;;;5117012;27;20027;-70
2022/09/21 03:09:04;;;;;;;8.63;3.70;;;16.70;69.00;;;;;;5109274;27;20040;-77
2022/09/21 03:11:30;;;;;;;9.05;4.45;;;16.70;69.10;;;;;;5109827;27;20015;-74
2022/09/21 03:13:58;;;;;;;8.18;4.53;;;16.70;69.00;;;;;;5110156;28;20019;-72
2022/09/21 03:16:25;;;;;;;6.78;3.47;;;16.70;68.80;;;;;;5109774;27;20072;-74
2022/09/21 03:18:51;;;;;;;7.35;3.35;;;16.70;68.70;;;;;;5109678;27;20058;-68
2022/09/21 03:21:18;;;;;;;11.40;3.97;;;16.60;68.40;;;;;;5108446;28;20124;-71
2022/09/21 03:23:44;;;;;;;7.20;5.13;;;16.60;68.40;;;;;;5110709;27;20030;-70
2022/09/21 03:26:10;;;;;;;7.43;3.53;;;16.60;68.50;;;;;;5112874;27;20026;-70
2022/09/21 03:28:37;;;;;;;9.85;4.55;;;16.60;68.50;;;;;;5112818;27;20039;-69
2022/09/21 03:31:05;;;;;;;11.60;6.05;;;16.60;68.50;;;;;;5110728;27;20011;-68
2022/09/21 03:33:31;;;;;;;13.75;4.70;;;16.50;68.50;;;;;;5109422;27;20063;-68
2022/09/21 03:35:58;;;;;;;8.85;4.65;;;16.50;68.70;;;;;;5111797;27;20083;-68
2022/09/21 03:38:25;;;;;;;7.97;4.53;;;16.50;68.80;;;;;;5107810;28;20067;-70
2022/09/21 03:40:53;;;;;;;9.60;3.47;;;16.50;68.80;;;;;;5087096;27;20410;-68
2022/09/21 03:43:19;;;;;;;8.63;3.75;;;16.50;68.80;;;;;;5111437;27;20016;-70
2022/09/21 03:45:47;;;;;;;21.10;5.43;;;16.50;68.90;;;;;;5108980;27;20020;-70
2022/09/21 03:48:14;;;;;;;14.43;6.32;;;16.50;69.60;;;;;;5108972;27;20028;-68
2022/09/21 03:50:41;;;;;;;15.18;6.10;;;16.50;69.80;;;;;;5110750;27;20016;-68
2022/09/21 03:53:09;;;;;;;7.40;5.60;;;16.50;70.50;;;;;;5112444;27;20027;-69
2022/09/21 03:55:35;;;;;;;11.38;3.67;;;16.50;69.60;;;;;;5108893;27;20038;-71
2022/09/21 03:58:02;;;;;;;9.00;3.33;;;16.40;69.50;;;;;;5110621;27;20023;-69
2022/09/21 04:00:29;;;;;;;9.05;3.40;;;16.40;69.60;;;;;;5110097;27;20536;-70
2022/09/21 04:02:56;;;;;;;10.77;4.00;;;16.40;69.80;;;;;;5107988;28;20575;-68
2022/09/21 04:05:23;;;;;;;8.07;3.45;;;16.30;71.20;;;;;;5091427;28;20421;-68
2022/09/21 04:07:50;;;;;;;8.15;2.35;;;16.30;72.70;;;;;;5109231;28;20019;-69
2022/09/21 04:10:20;;;;;;;23.33;9.00;;;16.40;73.20;;;;;;5109998;28;20027;-72
2022/09/21 04:12:47;;;;;;;25.25;14.52;;;16.40;72.60;;;;;;5108429;28;20023;-71
2022/09/21 04:15:18;;;;;;;41.67;30.25;;;16.40;72.40;;;;;;5108973;28;20023;-70
2022/09/21 04:17:46;;;;;;;72.20;48.05;;;16.40;72.30;;;;;;5111052;28;20027;-69
2022/09/21 04:20:12;;;;;;;49.45;35.70;;;16.40;72.20;;;;;;5111203;27;20386;-72
2022/09/21 04:22:39;;;;;;;51.25;23.85;;;16.40;71.90;;;;;;5108740;28;20496;-78
2022/09/21 04:25:06;;;;;;;19.45;12.77;;;16.30;71.50;;;;;;5105388;28;20063;-65
2022/09/21 04:27:33;;;;;;;14.98;10.80;;;16.30;71.50;;;;;;5086022;28;20119;-71
2022/09/21 04:30:00;;;;;;;13.90;8.88;;;16.30;71.70;;;;;;5108106;28;20135;-68
2022/09/21 04:32:26;;;;;;;18.23;6.70;;;16.30;71.70;;;;;;5108118;28;20413;-74
2022/09/21 04:34:53;;;;;;;13.70;8.93;;;16.30;71.70;;;;;;5088956;28;20173;-73
2022/09/21 04:37:19;;;;;;;11.45;4.45;;;16.30;71.70;;;;;;5110213;28;20031;-78
2022/09/21 04:39:49;;;;;;;5.63;3.30;;;16.30;71.60;;;;;;5106796;28;20031;-71
2022/09/21 04:42:16;;;;;;;8.50;3.30;;;16.30;71.50;;;;;;5106710;28;20028;-74
2022/09/21 04:44:43;;;;;;;8.30;3.33;;;16.30;71.40;;;;;;5108869;28;20053;-71
2022/09/21 04:47:09;;;;;;;8.80;3.10;;;16.30;71.40;;;;;;5107220;28;20020;-77
2022/09/21 04:49:37;;;;;;;15.23;5.95;;;16.20;71.30;;;;;;5106199;28;20035;-73
2022/09/21 04:52:04;;;;;;;9.32;3.70;;;16.20;71.30;;;;;;5120383;27;20062;-78
2022/09/21 04:54:31;;;;;;;20.73;3.28;;;16.20;71.40;;;;;;5108722;28;20031;-77
2022/09/21 04:56:58;;;;;;;15.75;3.67;;;16.20;71.70;;;;;;5108042;28;20062;-78
2022/09/21 04:59:25;;;;;;;11.38;2.60;;;16.20;72.40;;;;;;5105553;27;20619;-78
2022/09/21 05:01:51;;;;;;;11.50;3.55;;;16.20;72.80;;;;;;5107917;27;20102;-79
2022/09/21 05:04:18;;;;;;;6.05;2.40;;;16.20;73.20;;;;;;5110883;27;20796;-81
2022/09/21 05:06:44;;;;;;;14.60;4.32;;;16.20;73.70;;;;;;5108226;27;20031;-79
2022/09/21 05:11:55;;;;;;;11.30;4.28;;;16.20;74.30;;;;;;5111094;27;20039;-77
2022/09/21 05:14:22;;;;;;;15.13;4.38;;;16.20;74.50;;;;;;5106997;27;20526;-78
2022/09/21 05:16:48;;;;;;;12.07;4.13;;;16.20;74.90;;;;;;5114161;27;20023;-81
2022/09/21 05:19:16;;;;;;;8.30;3.58;;;16.20;75.20;;;;;;5107927;27;20036;-79
2022/09/21 05:21:42;;;;;;;6.57;3.80;;;16.30;75.50;;;;;;5093725;28;20497;-79
2022/09/21 05:24:09;;;;;;;10.57;4.70;;;16.30;75.60;;;;;;5110955;27;20072;-78
2022/09/21 05:26:36;;;;;;;11.20;4.20;;;16.30;76.50;;;;;;5108992;27;20019;-77
2022/09/21 05:29:03;;;;;;;7.30;5.00;;;16.30;76.00;;;;;;5111730;27;20045;-79
2022/09/21 05:31:41;;;;;;;9.85;4.45;;;16.40;76.00;;;;;;5114483;27;20027;-78
2022/09/21 05:34:23;;;;;;;16.92;4.93;;;16.40;76.10;;;;;;5113378;27;20024;-79
2022/09/21 05:36:57;;;;;;;12.63;4.88;;;16.50;76.20;;;;;;5112758;27;20008;-80
2022/09/21 05:39:24;;;;;;;12.30;5.40;;;16.50;76.20;;;;;;5115055;27;20084;-75
2022/09/21 05:41:51;;;;;;;13.10;4.15;;;16.50;76.40;;;;;;5112960;27;20355;-77
2022/09/21 05:44:17;;;;;;;13.25;4.53;;;16.50;76.70;;;;;;5119493;27;20100;-80
2022/09/21 05:47:11;;;;;;;11.70;5.00;;;16.50;76.60;;;;;;5111776;28;20012;-77
2022/09/21 05:49:48;;;;;;;11.98;4.68;;;16.50;76.60;;;;;;5113497;27;20557;-76
2022/09/21 05:52:34;;;;;;;14.02;3.97;;;16.50;76.40;;;;;;5110630;28;20023;-75
2022/09/21 05:55:18;;;;;;;15.65;4.80;;;16.50;76.20;;;;;;5079901;27;20044;-76
2022/09/21 05:57:54;;;;;;;18.20;6.38;;;16.50;75.90;;;;;;5113447;27;20504;-77
2022/09/21 06:00:22;;;;;;;11.07;6.10;;;16.50;75.80;;;;;;5111477;27;20050;-80
2022/09/21 18:26:51;;;;;;;18.02;12.00;;;20.50;62.00;;;;;;5076573;27;20482;-67
2022/09/21 18:29:32;;;;;;;12.27;9.02;;;20.50;63.60;;;;;;5051660;28;20043;-78
2022/09/21 18:32:38;;;;;;;21.90;15.80;;;20.50;63.60;;;;;;5051863;28;20021;-70
2022/09/21 18:35:31;;;;;;;25.80;13.48;;;20.60;63.90;;;;;;5058866;28;20033;-68
2022/09/21 18:38:21;;;;;;;14.48;9.88;;;20.60;64.30;;;;;;5052178;28;20029;-70
2022/09/21 18:40:51;;;;;;;14.98;9.32;;;20.60;63.90;;;;;;5053218;28;20031;-67
2022/09/21 18:43:36;;;;;;;23.95;9.70;;;20.60;63.60;;;;;;5052897;28;20164;-69
2022/09/21 18:46:24;;;;;;;17.85;8.00;;;20.60;64.00;;;;;;5052633;28;20108;-70
2022/09/21 18:49:09;;;;;;;10.60;7.30;;;20.60;63.90;;;;;;5051189;28;20034;-72
2022/09/21 18:51:40;;;;;;;9.90;6.00;;;20.60;63.80;;;;;;5052342;28;20442;-76
2022/09/21 18:54:17;;;;;;;11.23;5.10;;;20.60;63.80;;;;;;5052363;28;20040;-71
2022/09/21 18:56:44;;;;;;;11.23;5.05;;;20.50;63.60;;;;;;5057185;28;20051;-67
2022/09/21 18:59:11;;;;;;;15.45;6.60;;;20.50;63.70;;;;;;5051412;28;20041;-81
2022/09/21 19:01:40;;;;;;;19.02;8.88;;;20.50;63.70;;;;;;5049969;28;20029;-68
2022/09/21 19:04:07;;;;;;;22.63;14.63;;;20.50;63.80;;;;;;5046108;28;20017;-67
2022/09/21 19:06:49;;;;;;;18.60;14.20;;;20.50;64.20;;;;;;5049934;28;20415;-75
2022/09/21 19:09:39;;;;;;;18.58;13.23;;;20.50;64.50;;;;;;5049304;28;20075;-70
2022/09/21 19:12:34;;;;;;;18.98;10.20;;;20.50;64.80;;;;;;5049702;28;20075;-85
2022/09/21 19:15:12;;;;;;;9.50;5.72;;;20.50;64.60;;;;;;5057096;28;20601;-83
2022/09/21 19:18:05;;;;;;;16.10;7.18;;;20.40;64.20;;;;;;5048694;28;20041;-75
2022/09/21 19:21:18;;;;;;;32.50;17.08;;;20.40;64.40;;;;;;5049514;28;20120;-71
2022/09/21 19:23:59;;;;;;;33.95;21.77;;;20.40;65.00;;;;;;5053208;28;20033;-71
2022/09/21 19:26:49;;;;;;;21.95;15.75;;;20.40;65.10;;;;;;5039586;28;20376;-71
2022/09/21 19:29:27;;;;;;;14.32;9.45;;;20.30;64.90;;;;;;5042510;28;20048;-78
2022/09/21 19:31:54;;;;;;;7.80;5.60;;;20.30;64.40;;;;;;5035547;28;20078;-69
2022/09/21 19:34:20;;;;;;;7.00;4.00;;;20.30;64.30;;;;;;5043598;28;20087;-72
2022/09/21 19:36:47;;;;;;;3.95;3.35;;;20.30;64.20;;;;;;5037053;28;20022;-72
2022/09/21 19:39:16;;;;;;;6.95;3.35;;;20.30;64.20;;;;;;5038885;28;20055;-73
2022/09/21 19:42:12;;;;;;;13.32;2.70;;;20.20;64.60;;;;;;5037562;28;20499;-75
2022/09/21 19:45:08;;;;;;;6.88;2.10;;;20.20;64.90;;;;;;5038526;28;20021;-69
2022/09/21 19:47:51;;;;;;;5.68;2.38;;;20.20;65.00;;;;;;5039768;28;20029;-76
2022/09/21 19:50:21;;;;;;;5.10;2.03;;;20.10;64.80;;;;;;5042335;28;20029;-68
2022/09/21 20:00:17;;;;;;;5.95;2.42;;;20.00;64.20;;;;;;5038997;28;20044;-68
2022/09/21 20:03:12;;;;;;;8.27;3.80;;;20.00;64.10;;;;;;5043910;28;20733;-68
2022/09/21 20:05:50;;;;;;;6.65;3.05;;;20.00;64.30;;;;;;5042774;28;20416;-72
2022/09/21 20:08:45;;;;;;;5.95;3.33;;;20.00;64.00;;;;;;5037023;28;20032;-71
2022/09/21 20:11:37;;;;;;;16.33;3.13;;;20.00;64.20;;;;;;5038514;28;20136;-69
2022/09/21 20:14:56;;;;;;;4.53;1.52;;;20.00;65.10;;;;;;5042962;28;20479;-71
2022/09/21 20:18:14;;;;;;;5.55;1.52;;;20.00;65.30;;;;;;5038129;28;20032;-67
2022/09/21 20:21:21;;;;;;;5.13;2.63;;;20.00;65.30;;;;;;5037927;28;20087;-68
2022/09/21 20:24:27;;;;;;;4.70;1.80;;;20.00;65.10;;;;;;5041485;28;20025;-68
2022/09/21 20:27:35;;;;;;;5.00;1.90;;;20.00;64.90;;;;;;5044167;28;20097;-67
2022/09/21 20:30:42;;;;;;;5.55;1.92;;;19.90;64.70;;;;;;5046127;28;20032;-76
2022/09/21 20:33:54;;;;;;;8.27;2.53;;;19.90;64.80;;;;;;5035856;28;20104;-68
2022/09/21 20:37:00;;;;;;;2.83;1.40;;;19.90;65.10;;;;;;5038550;28;20022;-68
2022/09/21 20:39:26;;;;;;;7.47;1.58;;;19.80;65.20;;;;;;5035760;28;20032;-68
2022/09/21 20:41:53;;;;;;;4.88;1.58;;;19.80;65.30;;;;;;5040373;28;20029;-70
2022/09/21 20:44:20;;;;;;;4.28;1.60;;;19.80;65.20;;;;;;5041520;28;20140;-74
2022/09/21 20:46:47;;;;;;;2.97;2.05;;;19.80;65.40;;;;;;5040929;28;20377;-68
2022/09/21 20:49:14;;;;;;;3.88;2.08;;;19.80;65.50;;;;;;5036248;28;20023;-68
2022/09/21 20:51:41;;;;;;;7.68;3.28;;;19.80;65.60;;;;;;5041706;28;20598;-71
2022/09/21 20:54:08;;;;;;;7.10;2.63;;;19.80;65.60;;;;;;5039804;28;20113;-69
2022/09/21 20:56:34;;;;;;;11.10;3.85;;;19.80;65.70;;;;;;5037213;28;20364;-76
2022/09/21 20:59:01;;;;;;;3.33;2.08;;;19.80;65.90;;;;;;5047645;28;20095;-72
2022/09/21 21:01:27;;;;;;;4.38;2.05;;;19.70;66.20;;;;;;5040884;28;20029;-70
2022/09/21 21:04:36;;;;;;;6.55;1.83;;;19.70;66.40;;;;;;5037641;28;20491;-69
2022/09/21 21:07:42;;;;;;;3.92;1.65;;;19.70;66.40;;;;;;5043159;28;20518;-69
2022/09/21 21:10:49;;;;;;;4.88;2.42;;;19.70;66.60;;;;;;5043830;28;20070;-72
2022/09/21 21:13:55;;;;;;;6.85;2.53;;;19.70;66.70;;;;;;5036921;28;20028;-69
2022/09/21 21:17:01;;;;;;;16.73;2.95;;;19.70;66.80;;;;;;5035501;28;20029;-74
2022/09/21 21:20:07;;;;;;;8.27;1.73;;;19.70;67.00;;;;;;5042222;28;20043;-74
2022/09/21 21:23:13;;;;;;;9.30;1.50;;;19.70;67.20;;;;;;5039980;28;20075;-70
2022/09/21 21:25:40;;;;;;;9.95;1.67;;;19.60;67.50;;;;;;5040744;28;20605;-71
2022/09/21 21:28:06;;;;;;;4.63;1.10;;;19.60;67.70;;;;;;5045380;28;20416;-70
2022/09/21 21:30:32;;;;;;;10.88;2.85;;;19.60;67.90;;;;;;5042154;28;20028;-72
2022/09/21 21:33:00;;;;;;;3.53;1.33;;;19.60;68.00;;;;;;5040444;28;20036;-71
2022/09/21 21:35:28;;;;;;;5.45;1.70;;;19.50;68.10;;;;;;5039644;28;20410;-69
2022/09/21 21:37:55;;;;;;;5.22;1.65;;;19.50;68.70;;;;;;5040922;28;20088;-69
2022/09/21 21:40:24;;;;;;;5.15;1.77;;;19.50;68.10;;;;;;5043822;28;20017;-69
2022/09/21 21:43:30;;;;;;;4.80;1.88;;;19.50;68.20;;;;;;5041821;28;20115;-68
2022/09/21 21:46:03;;;;;;;4.97;1.80;;;19.50;68.30;;;;;;5035014;28;20021;-73
2022/09/21 21:48:29;;;;;;;9.75;1.70;;;19.50;68.40;;;;;;5041429;28;20037;-74
2022/09/21 21:51:01;;;;;;;4.85;1.40;;;19.50;68.50;;;;;;5040812;28;20025;-72
2022/09/21 21:53:31;;;;;;;6.97;1.67;;;19.50;68.50;;;;;;5037420;28;20042;-75
2022/09/21 21:56:21;;;;;;;4.90;1.77;;;19.50;68.50;;;;;;5042327;28;20376;-72
2022/09/21 21:58:52;;;;;;;5.53;1.75;;;19.50;68.60;;;;;;5049288;28;20489;-72
2022/09/21 22:02:01;;;;;;;3.75;1.83;;;19.40;68.50;;;;;;5040528;28;20037;-69
